Time;durP1;ratioP1;P1;durP2;ratioP2;P2;SDS_P1;SDS_P2;PMS_P1;PMS_P2;Temp;Humidity;BMP_temperature;BMP_pressure;BME280_temperature;BME280_humidity;BME280_pressure;Samples;Min_cycle;Max_cycle;Signal;HPM_P1;HPM_P2
2023/03/25 00:00:59;;;;;;;22.08;5.35;;;9.60;99.90;;;;;;5020174;28;20389;-77
2023/03/25 00:03:26;;;;;;;20.45;5.63;;;9.50;99.90;;;;;;5015625;28;20135;-78
2023/03/25 00:05:52;;;;;;;17.83;4.32;;;9.50;99.90;;;;;;5016724;28;20044;-76
2023/03/25 00:08:18;;;;;;;18.42;5.28;;;9.60;99.90;;;;;;4999648;28;20045;-77
2023/03/25 00:10:44;;;;;;;17.88;4.90;;;9.50;99.90;;;;;;5033439;28;20033;-77
2023/03/25 00:13:12;;;;;;;15.70;4.75;;;9.60;99.90;;;;;;4999430;28;20500;-77
2023/03/25 00:15:44;;;;;;;15.70;4.43;;;9.60;99.90;;;;;;5032688;28;20041;-77
2023/03/25 00:18:11;;;;;;;15.27;3.88;;;9.60;99.90;;;;;;5035439;28;20072;-76
2023/03/25 00:20:39;;;;;;;17.17;4.28;;;9.60;99.90;;;;;;5053852;28;20041;-76
2023/03/25 00:23:06;;;;;;;16.65;4.45;;;9.60;99.90;;;;;;5035150;28;20053;-77
2023/03/25 00:25:32;;;;;;;26.55;5.45;;;9.50;99.90;;;;;;5053965;28;20458;-77
2023/03/25 00:27:58;;;;;;;16.90;5.07;;;9.60;99.90;;;;;;5035855;28;20072;-76
2023/03/25 00:30:24;;;;;;;16.67;5.07;;;9.50;99.90;;;;;;5034220;28;20076;-76
2023/03/25 00:32:51;;;;;;;23.75;5.00;;;9.50;99.90;;;;;;5053830;28;20033;-76
2023/03/25 00:35:22;;;;;;;23.70;5.85;;;9.50;99.90;;;;;;5035172;28;20045;-77
2023/03/25 00:37:58;;;;;;;26.02;6.13;;;9.50;99.90;;;;;;5018431;28;20047;-77
2023/03/25 00:40:33;;;;;;;27.60;5.68;;;9.50;99.90;;;;;;5035200;28;20061;-77
2023/03/25 00:43:00;;;;;;;22.25;5.68;;;9.40;99.90;;;;;;5035532;28;20466;-77
2023/03/25 00:45:26;;;;;;;18.85;4.65;;;9.40;99.90;;;;;;5034431;28;20080;-77
2023/03/25 00:47:52;;;;;;;17.80;5.43;;;9.30;99.90;;;;;;5053226;28;20064;-77
2023/03/25 00:50:18;;;;;;;21.92;5.60;;;9.30;99.90;;;;;;5052715;28;20040;-77
2023/03/25 00:52:44;;;;;;;22.17;5.35;;;9.30;99.90;;;;;;5052363;28;20083;-76
2023/03/25 00:55:09;;;;;;;23.23;5.00;;;9.20;99.90;;;;;;5032658;28;20049;-75
2023/03/25 00:57:36;;;;;;;24.40;6.18;;;9.20;99.90;;;;;;4999020;28;20063;-74
2023/03/25 01:00:06;;;;;;;17.45;5.47;;;9.10;99.90;;;;;;5014899;28;20041;-74
2023/03/25 01:02:32;;;;;;;22.42;6.97;;;9.10;99.90;;;;;;5033004;28;20120;-74
2023/03/25 01:05:11;;;;;;;22.67;4.93;;;9.00;99.90;;;;;;5032464;28;20048;-75
2023/03/25 01:07:38;;;;;;;21.92;6.10;;;9.00;99.90;;;;;;4998939;28;20038;-75
2023/03/25 01:10:05;;;;;;;24.67;7.03;;;9.00;99.90;;;;;;5015200;28;20506;-74
2023/03/25 01:12:31;;;;;;;28.92;6.07;;;9.00;99.90;;;;;;5014580;28;20041;-74
2023/03/25 01:14:57;;;;;;;27.58;6.03;;;9.00;99.90;;;;;;5015030;28;20042;-74
2023/03/25 01:17:23;;;;;;;23.23;5.93;;;8.90;99.90;;;;;;5014590;28;20041;-74
2023/03/25 01:19:48;;;;;;;25.88;6.18;;;8.90;99.90;;;;;;5014390;28;20118;-74
2023/03/25 01:22:14;;;;;;;25.58;5.95;;;8.90;99.90;;;;;;5032155;28;20044;-75
2023/03/25 01:24:40;;;;;;;28.63;6.28;;;8.90;99.90;;;;;;5032777;28;20037;-74
2023/03/25 01:27:05;;;;;;;20.00;5.65;;;8.90;99.90;;;;;;4997102;28;20044;-74
2023/03/25 01:29:31;;;;;;;28.02;5.30;;;8.90;99.90;;;;;;5015060;28;20099;-73
2023/03/25 01:31:57;;;;;;;17.88;5.85;;;8.90;99.90;;;;;;5015356;28;20033;-73
2023/03/25 01:34:23;;;;;;;22.00;6.22;;;8.90;99.90;;;;;;5013841;28;20116;-72
2023/03/25 01:36:49;;;;;;;25.33;6.40;;;8.90;99.90;;;;;;5032564;28;20046;-73
2023/03/25 01:39:17;;;;;;;26.00;6.03;;;8.90;99.90;;;;;;5014141;28;20406;-73
2023/03/25 01:41:45;;;;;;;28.38;6.65;;;8.90;99.90;;;;;;4997594;28;20141;-73
2023/03/25 01:44:23;;;;;;;30.23;6.05;;;9.00;99.90;;;;;;5014076;28;20050;-73
2023/03/25 01:46:51;;;;;;;24.55;4.85;;;9.00;99.90;;;;;;5014883;28;20048;-73
2023/03/25 01:49:22;;;;;;;23.85;5.75;;;9.00;99.90;;;;;;5022268;28;20068;-73
2023/03/25 01:51:53;;;;;;;24.08;6.70;;;9.00;99.90;;;;;;5018103;28;20047;-73
2023/03/25 01:54:20;;;;;;;31.13;6.88;;;9.00;99.90;;;;;;5033073;28;20037;-73
2023/03/25 01:56:48;;;;;;;23.58;6.85;;;9.00;99.90;;;;;;5018010;28;20048;-73
2023/03/25 01:59:17;;;;;;;31.58;6.95;;;9.00;99.90;;;;;;5033712;28;20044;-73
2023/03/25 02:01:47;;;;;;;19.65;5.75;;;9.00;99.90;;;;;;5033536;28;20140;-73
2023/03/25 02:04:15;;;;;;;16.85;5.32;;;9.00;99.90;;;;;;5051333;28;20048;-73
2023/03/25 02:06:47;;;;;;;26.92;4.85;;;9.00;99.90;;;;;;5032673;28;20434;-73
2023/03/25 02:09:16;;;;;;;22.98;5.63;;;9.00;99.90;;;;;;5032942;28;20048;-73
2023/03/25 02:11:42;;;;;;;25.98;6.28;;;9.00;99.90;;;;;;5007577;28;20045;-73
2023/03/25 02:14:15;;;;;;;17.58;5.20;;;9.00;99.90;;;;;;5013496;28;20037;-73
2023/03/25 02:17:05;;;;;;;21.65;5.47;;;9.00;99.90;;;;;;5015408;28;20633;-73
2023/03/25 02:19:52;;;;;;;18.50;5.55;;;9.00;99.90;;;;;;5018435;28;20037;-73
2023/03/25 02:22:24;;;;;;;23.52;6.00;;;9.00;99.90;;;;;;5016911;28;20052;-73
2023/03/25 02:24:53;;;;;;;22.55;6.45;;;9.00;99.90;;;;;;5018627;28;20394;-73
2023/03/25 02:27:27;;;;;;;27.20;7.03;;;9.00;99.90;;;;;;5017621;28;20051;-73
2023/03/25 02:30:20;;;;;;;22.38;6.68;;;9.00;99.90;;;;;;5035200;28;20047;-73
2023/03/25 02:33:15;;;;;;;24.30;5.82;;;9.00;99.90;;;;;;5036147;28;20038;-73
2023/03/25 02:36:17;;;;;;;27.38;6.32;;;9.00;99.90;;;;;;5018061;28;20501;-73
2023/03/25 02:39:10;;;;;;;27.05;8.30;;;9.00;99.90;;;;;;5001616;28;20034;-73
2023/03/25 02:41:42;;;;;;;26.45;6.15;;;9.00;99.90;;;;;;5018319;28;20046;-73
2023/03/25 02:44:14;;;;;;;26.17;6.70;;;8.90;99.90;;;;;;5000614;28;20080;-73
2023/03/25 02:46:47;;;;;;;27.52;7.50;;;9.00;99.90;;;;;;5053517;28;20436;-73
2023/03/25 02:49:43;;;;;;;21.75;6.75;;;8.90;99.90;;;;;;5020295;28;20496;-73
2023/03/25 02:52:20;;;;;;;32.75;7.35;;;8.90;99.90;;;;;;5011164;28;20064;-74
2023/03/25 02:54:50;;;;;;;25.17;6.03;;;8.90;99.90;;;;;;5055741;28;20068;-73
2023/03/25 02:57:20;;;;;;;24.17;5.50;;;8.90;99.90;;;;;;5054826;28;20432;-73
2023/03/25 02:59:47;;;;;;;21.45;7.05;;;8.90;99.90;;;;;;5020995;28;20053;-74
2023/03/25 03:02:14;;;;;;;25.27;6.20;;;8.90;99.90;;;;;;5037151;28;20045;-73
2023/03/25 03:04:46;;;;;;;24.35;5.80;;;8.90;99.90;;;;;;5036661;28;20052;-73
2023/03/25 03:07:20;;;;;;;26.20;5.85;;;8.90;99.90;;;;;;5020172;28;20087;-74
2023/03/25 03:09:52;;;;;;;18.63;6.30;;;8.90;99.90;;;;;;5020752;28;20041;-74
2023/03/25 03:12:57;;;;;;;25.63;5.60;;;8.90;99.90;;;;;;5036055;28;20501;-74
2023/03/25 03:15:44;;;;;;;24.25;5.25;;;9.00;99.90;;;;;;5036624;28;20485;-73
2023/03/25 03:18:32;;;;;;;30.88;7.53;;;8.90;99.90;;;;;;5020135;28;20513;-76
2023/03/25 03:21:12;;;;;;;23.05;5.18;;;9.00;99.90;;;;;;5054600;28;20405;-76
2023/03/25 03:24:20;;;;;;;21.52;5.40;;;8.90;99.90;;;;;;5037330;28;20056;-76
2023/03/25 03:26:57;;;;;;;28.52;6.78;;;8.90;99.90;;;;;;4953905;29;20085;-76
2023/03/25 03:29:44;;;;;;;24.45;7.13;;;8.90;99.90;;;;;;5027026;28;20045;-76
2023/03/25 03:32:33;;;;;;;21.92;6.03;;;8.90;99.90;;;;;;5054365;28;20068;-75
2023/03/25 03:35:21;;;;;;;21.92;5.05;;;8.90;99.90;;;;;;5037008;28;20048;-75
2023/03/25 03:37:55;;;;;;;28.00;6.70;;;8.90;99.90;;;;;;5036761;28;20037;-75
2023/03/25 03:40:23;;;;;;;30.77;6.30;;;8.90;99.90;;;;;;5034279;28;20056;-76
2023/03/25 03:42:55;;;;;;;19.67;5.97;;;8.90;99.90;;;;;;5034752;28;20113;-75
2023/03/25 03:45:47;;;;;;;29.27;5.93;;;9.00;99.90;;;;;;5000129;28;20191;-75
2023/03/25 03:48:37;;;;;;;19.60;5.97;;;9.00;99.90;;;;;;5008739;28;20472;-74
2023/03/25 03:51:20;;;;;;;25.88;5.97;;;9.00;99.90;;;;;;5016772;28;20155;-75
2023/03/25 03:54:04;;;;;;;24.67;6.78;;;9.00;99.90;;;;;;5016088;28;20049;-75
2023/03/25 03:56:38;;;;;;;21.60;6.40;;;9.00;99.90;;;;;;5016963;28;20390;-75
2023/03/25 03:59:11;;;;;;;25.90;5.90;;;9.00;99.90;;;;;;5034203;28;20033;-77
2023/03/25 04:01:45;;;;;;;25.25;6.53;;;9.00;99.90;;;;;;5016051;28;20045;-77
2023/03/25 04:04:19;;;;;;;26.58;6.53;;;9.00;99.90;;;;;;5033890;28;20095;-76
2023/03/25 04:06:57;;;;;;;24.80;6.32;;;9.00;99.90;;;;;;5034493;28;20113;-77
2023/03/25 04:09:45;;;;;;;26.50;6.30;;;9.00;99.90;;;;;;5015180;28;20049;-77
2023/03/25 04:12:18;;;;;;;20.83;5.88;;;9.00;99.90;;;;;;5022674;28;20052;-76
2023/03/25 04:14:45;;;;;;;26.77;6.75;;;9.00;99.90;;;;;;5033371;28;20037;-74
2023/03/25 04:17:10;;;;;;;23.65;6.35;;;9.00;99.90;;;;;;4999364;28;20164;-75
2023/03/25 04:19:36;;;;;;;25.80;5.95;;;9.00;99.90;;;;;;5033998;28;20117;-74
2023/03/25 04:22:03;;;;;;;22.45;5.72;;;9.00;99.90;;;;;;5015470;28;20530;-74
2023/03/25 04:24:30;;;;;;;29.73;7.22;;;9.00;99.90;;;;;;5016013;28;20521;-74
2023/03/25 04:27:03;;;;;;;27.35;6.05;;;9.00;99.90;;;;;;5016202;28;20194;-74
2023/03/25 04:29:32;;;;;;;29.83;5.82;;;9.00;99.90;;;;;;5032818;28;20371;-74
2023/03/25 04:32:01;;;;;;;27.70;5.47;;;9.00;99.90;;;;;;5033876;28;20073;-74
2023/03/25 04:34:27;;;;;;;26.25;7.38;;;9.00;99.90;;;;;;5015698;28;20120;-74
2023/03/25 04:36:53;;;;;;;22.80;6.13;;;9.00;99.90;;;;;;5015102;28;20494;-74
2023/03/25 04:39:22;;;;;;;18.20;5.72;;;9.00;99.90;;;;;;5014991;28;20395;-75
2023/03/25 04:41:55;;;;;;;24.48;5.78;;;9.00;99.90;;;;;;5016266;28;20363;-74
2023/03/25 04:44:24;;;;;;;24.45;7.47;;;9.00;99.90;;;;;;5014428;28;20053;-74
2023/03/25 04:46:51;;;;;;;19.75;6.20;;;9.00;99.90;;;;;;5015531;28;20557;-74
2023/03/25 04:49:19;;;;;;;24.00;5.72;;;9.00;99.90;;;;;;5014960;28;20037;-74
2023/03/25 04:51:50;;;;;;;21.73;6.00;;;9.00;99.90;;;;;;4998746;28;20128;-75
2023/03/25 04:54:20;;;;;;;24.75;6.13;;;9.00;99.90;;;;;;5015111;28;20486;-75
2023/03/25 04:56:48;;;;;;;29.63;7.70;;;9.00;99.90;;;;;;5015538;28;20041;-74
2023/03/25 04:59:14;;;;;;;28.15;6.85;;;9.00;99.90;;;;;;5014330;28;20037;-74
2023/03/25 05:01:44;;;;;;;18.77;5.50;;;9.00;99.90;;;;;;5015543;28;20048;-75
2023/03/25 05:04:12;;;;;;;22.98;5.55;;;9.00;99.90;;;;;;5014099;28;20049;-74
2023/03/25 05:06:41;;;;;;;24.10;6.25;;;8.90;99.90;;;;;;5015362;28;20042;-74
2023/03/25 05:09:19;;;;;;;21.65;5.53;;;8.90;99.90;;;;;;4998343;28;20038;-75
2023/03/25 05:11:45;;;;;;;22.77;5.55;;;8.80;99.90;;;;;;5036495;28;20394;-74
2023/03/25 05:14:13;;;;;;;23.52;5.72;;;8.80;99.90;;;;;;5034900;28;20041;-75
2023/03/25 05:16:39;;;;;;;24.50;6.60;;;8.80;99.90;;;;;;5034935;28;20044;-74
2023/03/25 05:19:05;;;;;;;18.75;5.10;;;8.70;99.90;;;;;;5033230;28;20098;-74
2023/03/25 05:21:36;;;;;;;30.13;5.70;;;8.70;99.90;;;;;;5034912;28;20543;-75
2023/03/25 05:24:03;;;;;;;23.25;5.95;;;8.70;99.90;;;;;;5034685;28;20045;-75
2023/03/25 05:26:33;;;;;;;24.38;6.65;;;8.70;99.90;;;;;;5033849;28;20045;-75
2023/03/25 05:29:12;;;;;;;21.08;5.80;;;8.70;99.90;;;;;;5052323;28;20076;-74
2023/03/25 05:31:45;;;;;;;29.88;6.75;;;8.70;99.90;;;;;;5035091;28;20052;-75
2023/03/25 05:34:13;;;;;;;29.90;7.03;;;8.70;99.90;;;;;;5033329;28;20040;-75
2023/03/25 05:36:39;;;;;;;23.85;7.45;;;8.70;99.90;;;;;;5052596;28;20053;-75
2023/03/25 05:39:04;;;;;;;25.27;6.35;;;8.70;99.90;;;;;;5016940;28;20137;-75
2023/03/25 05:41:37;;;;;;;25.10;5.40;;;8.70;99.90;;;;;;5034194;28;20055;-75
2023/03/25 05:44:08;;;;;;;27.08;6.78;;;8.70;99.90;;;;;;5034285;28;20044;-75
2023/03/25 05:46:33;;;;;;;19.95;5.35;;;8.80;99.90;;;;;;5051517;28;20040;-75
2023/03/25 05:49:02;;;;;;;22.10;6.40;;;8.70;99.90;;;;;;5034058;28;20112;-75
2023/03/25 05:51:32;;;;;;;29.02;5.47;;;8.80;99.90;;;;;;5033705;28;20033;-75
2023/03/25 05:53:58;;;;;;;22.05;6.07;;;8.80;99.90;;;;;;5051502;28;20402;-74
2023/03/25 05:56:25;;;;;;;20.10;5.38;;;8.80;99.90;;;;;;5017639;28;20095;-75
2023/03/25 05:58:52;;;;;;;30.55;6.50;;;8.80;99.90;;;;;;5034325;28;20041;-75
2023/03/25 06:01:20;;;;;;;29.45;6.72;;;8.80;99.90;;;;;;5032996;28;20118;-74
2023/03/25 06:03:46;;;;;;;31.15;7.03;;;8.80;99.90;;;;;;5017724;28;20083;-75
2023/03/25 06:06:17;;;;;;;23.70;6.85;;;8.80;99.90;;;;;;5051519;28;20040;-74
2023/03/25 06:08:44;;;;;;;28.85;6.75;;;8.90;99.90;;;;;;5033507;28;20040;-75
2023/03/25 06:11:12;;;;;;;24.75;7.00;;;8.90;99.90;;;;;;5031277;28;20379;-74
2023/03/25 06:13:39;;;;;;;24.83;7.00;;;8.90;99.90;;;;;;5014374;28;20478;-74
2023/03/25 06:16:07;;;;;;;17.92;6.07;;;8.90;99.90;;;;;;5012897;28;20049;-74
2023/03/25 06:18:37;;;;;;;24.73;7.60;;;8.90;99.90;;;;;;5014418;28;20124;-73
2023/03/25 06:21:03;;;;;;;17.80;5.00;;;8.90;99.90;;;;;;5014066;28;20041;-74
2023/03/25 06:23:34;;;;;;;23.00;5.70;;;8.90;99.90;;;;;;5013212;28;20492;-74
2023/03/25 06:26:00;;;;;;;38.30;16.85;;;8.90;99.90;;;;;;5014606;28;20394;-74
2023/03/25 06:28:26;;;;;;;24.88;7.03;;;9.00;99.90;;;;;;5013257;28;20087;-74
2023/03/25 06:30:51;;;;;;;17.88;5.18;;;8.90;99.90;;;;;;5031857;28;20119;-74
2023/03/25 06:33:18;;;;;;;21.17;5.55;;;8.90;99.90;;;;;;5031442;28;20045;-73
2023/03/25 06:35:48;;;;;;;20.20;6.03;;;9.00;99.90;;;;;;5031069;28;20482;-74
2023/03/25 06:38:14;;;;;;;19.92;4.80;;;9.00;99.90;;;;;;5014002;28;20045;-74
2023/03/25 06:40:40;;;;;;;17.23;4.47;;;9.00;99.90;;;;;;5011457;28;20585;-74
2023/03/25 06:43:06;;;;;;;20.23;5.63;;;9.00;99.90;;;;;;5032500;28;20048;-74
2023/03/25 06:45:32;;;;;;;23.75;5.70;;;9.00;99.90;;;;;;5033945;28;20080;-74
2023/03/25 06:47:59;;;;;;;26.30;6.25;;;9.00;99.90;;;;;;5033739;28;20084;-74
2023/03/25 06:50:25;;;;;;;18.67;5.00;;;9.00;99.90;;;;;;5015669;28;20048;-74
2023/03/25 06:52:51;;;;;;;24.02;4.93;;;9.10;99.90;;;;;;5051963;28;20048;-75
2023/03/25 06:55:17;;;;;;;12.27;3.47;;;9.10;99.90;;;;;;5031659;28;20037;-74
2023/03/25 06:57:42;;;;;;;26.65;5.03;;;9.00;99.90;;;;;;5032944;28;20048;-74
2023/03/25 07:00:10;;;;;;;18.23;3.95;;;9.00;99.90;;;;;;5016661;28;20045;-77
2023/03/25 07:02:37;;;;;;;13.30;3.92;;;8.90;99.90;;;;;;5034974;28;20120;-74
2023/03/25 07:05:04;;;;;;;14.45;3.72;;;8.90;99.90;;;;;;5023517;28;20045;-75
2023/03/25 07:07:30;;;;;;;20.77;4.13;;;8.80;99.90;;;;;;5037395;28;20037;-75
2023/03/25 07:09:55;;;;;;;15.73;4.82;;;8.80;99.90;;;;;;5037369;28;20048;-75
2023/03/25 07:12:22;;;;;;;23.83;11.40;;;8.70;99.90;;;;;;5036158;28;20394;-76
2023/03/25 07:14:56;;;;;;;20.13;6.80;;;8.80;99.90;;;;;;5020578;28;20044;-73
2023/03/25 07:17:22;;;;;;;16.42;4.57;;;8.70;99.90;;;;;;5054219;28;20040;-72
2023/03/25 07:19:49;;;;;;;21.48;6.80;;;8.70;99.90;;;;;;5029912;28;20033;-73
2023/03/25 07:22:15;;;;;;;18.38;4.57;;;8.70;99.90;;;;;;5020410;28;20045;-72
2023/03/25 07:24:41;;;;;;;20.77;4.32;;;8.70;99.90;;;;;;5017529;28;20052;-73
2023/03/25 07:27:12;;;;;;;16.83;4.57;;;8.80;99.90;;;;;;5034815;28;20056;-73
2023/03/25 07:29:38;;;;;;;16.77;5.20;;;8.80;99.90;;;;;;5035900;28;20067;-73
2023/03/25 07:32:04;;;;;;;15.43;4.40;;;8.90;99.90;;;;;;5052139;28;20052;-73
2023/03/25 07:34:30;;;;;;;14.18;3.92;;;8.90;99.90;;;;;;5034997;28;20407;-73
2023/03/25 07:36:55;;;;;;;13.15;3.90;;;8.80;99.90;;;;;;5035704;28;20080;-75
2023/03/25 07:39:24;;;;;;;10.85;3.08;;;8.70;99.90;;;;;;5033937;28;20191;-73
2023/03/25 07:41:51;;;;;;;8.85;2.10;;;8.50;99.90;;;;;;5020799;28;20083;-74
2023/03/25 07:44:19;;;;;;;9.90;3.15;;;8.30;99.90;;;;;;5035989;28;20113;-76
2023/03/25 07:46:46;;;;;;;12.82;3.47;;;8.30;99.90;;;;;;5037223;28;20043;-76
2023/03/25 07:49:11;;;;;;;21.70;4.35;;;8.30;99.90;;;;;;5035820;28;20037;-76
2023/03/25 07:51:37;;;;;;;21.52;5.03;;;8.30;99.90;;;;;;5036431;28;20044;-75
2023/03/25 07:54:03;;;;;;;18.33;4.25;;;8.30;99.90;;;;;;5019761;28;20370;-76
2023/03/25 07:56:29;;;;;;;14.77;3.83;;;8.30;99.90;;;;;;5036334;28;20072;-74
2023/03/25 07:58:54;;;;;;;18.77;5.43;;;8.30;99.90;;;;;;5046844;28;20068;-75
2023/03/25 08:01:20;;;;;;;23.70;5.85;;;8.30;99.90;;;;;;5017318;28;20081;-75
2023/03/25 08:03:46;;;;;;;18.67;4.47;;;8.30;99.90;;;;;;5035755;28;20501;-77
2023/03/25 08:06:12;;;;;;;21.70;6.22;;;8.30;99.90;;;;;;5036345;28;20067;-76
2023/03/25 08:08:41;;;;;;;17.10;4.18;;;8.30;99.90;;;;;;5035983;28;20132;-76
2023/03/25 08:11:07;;;;;;;17.30;4.13;;;8.30;99.90;;;;;;5035996;28;20040;-77
2023/03/25 08:13:32;;;;;;;17.15;4.68;;;8.30;99.90;;;;;;5035655;28;20041;-76
2023/03/25 08:15:58;;;;;;;15.38;4.05;;;8.30;99.90;;;;;;5016879;28;20049;-76
2023/03/25 08:18:24;;;;;;;20.00;4.55;;;8.40;99.90;;;;;;5048822;28;20041;-76
2023/03/25 08:20:50;;;;;;;16.42;4.82;;;8.50;99.90;;;;;;5015800;28;20045;-75
2023/03/25 08:23:21;;;;;;;14.50;4.95;;;8.50;99.90;;;;;;5032104;28;20037;-76
2023/03/25 08:25:48;;;;;;;28.63;11.60;;;8.60;99.90;;;;;;5021424;28;20064;-75
2023/03/25 08:28:20;;;;;;;14.95;5.57;;;8.70;99.90;;;;;;5035235;28;20784;-73
2023/03/25 08:30:48;;;;;;;18.30;4.10;;;8.70;99.90;;;;;;5029785;28;20077;-74
2023/03/25 08:33:15;;;;;;;25.85;6.93;;;8.80;99.90;;;;;;5035020;28;20386;-74
2023/03/25 08:35:41;;;;;;;19.58;5.35;;;8.90;99.90;;;;;;5035762;28;20077;-74
2023/03/25 08:38:07;;;;;;;23.17;5.20;;;8.90;99.90;;;;;;5029384;28;20041;-74
2023/03/25 08:40:34;;;;;;;23.70;5.82;;;9.10;99.90;;;;;;5033479;28;20064;-74
2023/03/25 08:43:03;;;;;;;19.08;4.45;;;9.30;99.90;;;;;;5019576;28;20041;-73
2023/03/25 08:45:31;;;;;;;19.98;6.07;;;9.40;99.90;;;;;;5035526;28;20045;-74
2023/03/25 08:47:57;;;;;;;19.65;5.00;;;9.50;99.90;;;;;;5025736;28;20034;-74
2023/03/25 08:50:23;;;;;;;12.07;3.92;;;9.50;99.90;;;;;;5014601;28;20124;-74
2023/03/25 08:52:52;;;;;;;25.42;4.95;;;9.50;99.90;;;;;;5048565;28;20467;-75
2023/03/25 08:55:18;;;;;;;14.60;3.88;;;9.50;99.90;;;;;;5047677;28;20049;-72
2023/03/25 08:57:44;;;;;;;24.08;5.45;;;9.50;99.90;;;;;;5033094;28;20048;-74
2023/03/25 09:00:13;;;;;;;14.98;3.92;;;9.50;99.90;;;;;;5051252;28;20698;-74
2023/03/25 09:02:39;;;;;;;15.95;4.15;;;9.50;99.90;;;;;;5013641;28;20485;-73
2023/03/25 09:05:06;;;;;;;21.88;5.65;;;9.60;99.90;;;;;;5040788;28;20040;-74
2023/03/25 09:07:32;;;;;;;14.52;3.80;;;9.70;99.90;;;;;;5040435;28;20037;-73
2023/03/25 09:09:58;;;;;;;14.75;4.97;;;9.70;99.90;;;;;;5034125;28;20391;-74
2023/03/25 09:12:25;;;;;;;11.93;3.10;;;9.80;99.90;;;;;;5033117;28;20048;-74
2023/03/25 09:14:51;;;;;;;15.02;3.88;;;9.80;99.90;;;;;;5016944;28;20468;-72
2023/03/25 09:17:17;;;;;;;18.38;4.00;;;9.70;99.90;;;;;;5002228;28;20490;-72
2023/03/25 09:19:43;;;;;;;17.42;4.97;;;9.70;99.90;;;;;;5020975;28;20052;-72
2023/03/25 09:22:08;;;;;;;17.45;4.57;;;9.70;99.90;;;;;;5031732;28;20116;-73
2023/03/25 09:24:34;;;;;;;14.63;3.78;;;9.60;99.90;;;;;;5032695;28;20071;-72
2023/03/25 09:27:01;;;;;;;13.07;4.90;;;9.60;99.90;;;;;;5034105;28;20064;-73
2023/03/25 09:29:28;;;;;;;9.95;3.25;;;9.60;99.90;;;;;;5013287;28;20068;-72
2023/03/25 09:31:57;;;;;;;17.73;3.63;;;9.60;99.90;;;;;;5031776;28;20045;-71
2023/03/25 09:34:22;;;;;;;15.00;4.22;;;9.60;99.90;;;;;;5017218;28;20125;-72
2023/03/25 09:36:48;;;;;;;15.25;3.67;;;9.60;99.90;;;;;;5034062;28;20552;-71
2023/03/25 09:39:14;;;;;;;13.13;3.95;;;9.60;99.90;;;;;;5033442;28;20063;-73
2023/03/25 09:41:56;;;;;;;19.40;5.78;;;9.60;99.90;;;;;;5028825;28;20038;-72
2023/03/25 09:44:44;;;;;;;16.42;5.65;;;9.50;99.90;;;;;;5049263;28;20040;-70
2023/03/25 09:47:12;;;;;;;13.88;3.83;;;9.60;99.90;;;;;;5013601;28;20044;-72
2023/03/25 09:49:45;;;;;;;20.60;6.25;;;9.60;99.90;;;;;;5018930;28;20045;-73
2023/03/25 09:52:18;;;;;;;11.65;3.10;;;9.70;99.90;;;;;;5016973;28;20110;-72
2023/03/25 09:54:50;;;;;;;13.23;3.33;;;9.70;99.90;;;;;;5033549;28;20497;-72
2023/03/25 09:57:27;;;;;;;17.60;3.88;;;9.80;99.90;;;;;;5032787;28;20474;-74
2023/03/25 09:59:57;;;;;;;11.50;3.30;;;9.80;99.90;;;;;;5049509;28;20713;-73
2023/03/25 10:02:44;;;;;;;11.48;3.50;;;9.90;99.90;;;;;;5051081;28;20052;-72
2023/03/25 10:05:37;;;;;;;13.13;3.45;;;9.90;99.90;;;;;;5031998;28;20053;-73
2023/03/25 10:08:34;;;;;;;17.00;4.53;;;10.00;99.90;;;;;;5033338;28;20127;-73
2023/03/25 10:11:05;;;;;;;17.00;3.35;;;10.10;99.90;;;;;;5034651;28;20079;-74
2023/03/25 10:13:35;;;;;;;15.48;4.38;;;10.00;99.90;;;;;;5027232;28;20390;-73
2023/03/25 10:16:15;;;;;;;18.63;3.95;;;10.10;99.90;;;;;;5026684;28;20041;-73
2023/03/25 10:19:18;;;;;;;17.42;5.80;;;10.10;99.90;;;;;;5033517;28;20044;-73
2023/03/25 10:22:16;;;;;;;16.10;5.50;;;10.20;99.90;;;;;;5015548;28;20053;-73
2023/03/25 10:24:53;;;;;;;13.38;5.00;;;10.20;99.90;;;;;;5030919;28;20048;-76
2023/03/25 10:27:37;;;;;;;12.48;4.70;;;10.20;99.90;;;;;;5014784;28;20505;-76
2023/03/25 10:30:09;;;;;;;15.73;4.53;;;10.30;99.90;;;;;;5046606;28;20120;-77
2023/03/25 10:32:47;;;;;;;17.45;5.20;;;10.40;99.90;;;;;;5029343;28;20064;-76
2023/03/25 10:35:31;;;;;;;11.52;3.78;;;10.50;99.90;;;;;;5046938;28;20083;-74
2023/03/25 10:38:08;;;;;;;14.55;3.67;;;10.60;99.90;;;;;;5033095;28;20401;-71
2023/03/25 10:40:38;;;;;;;18.42;4.22;;;10.60;99.90;;;;;;5033757;28;20560;-71
2023/03/25 10:43:25;;;;;;;19.42;5.25;;;10.70;99.90;;;;;;5007453;28;20072;-73
2023/03/25 10:45:58;;;;;;;15.60;4.63;;;10.80;99.90;;;;;;5026488;28;20515;-72
2023/03/25 10:48:26;;;;;;;14.85;3.83;;;10.80;99.90;;;;;;5005321;28;20408;-72
2023/03/25 10:51:07;;;;;;;16.52;5.55;;;10.80;99.90;;;;;;5026883;28;20042;-71
2023/03/25 10:53:34;;;;;;;17.48;3.97;;;10.80;99.90;;;;;;5034247;28;20055;-71
2023/03/25 10:56:14;;;;;;;13.63;3.97;;;10.90;99.90;;;;;;5033494;28;20068;-72
2023/03/25 10:58:42;;;;;;;14.25;4.38;;;10.90;99.90;;;;;;5027190;28;20128;-71
2023/03/25 11:01:16;;;;;;;15.73;4.13;;;10.90;99.90;;;;;;5053051;28;20041;-71
2023/03/25 11:03:43;;;;;;;17.57;4.07;;;11.00;99.90;;;;;;5012516;28;20355;-72
2023/03/25 11:06:30;;;;;;;15.80;3.92;;;11.00;99.90;;;;;;5018822;28;20052;-74
2023/03/25 11:09:12;;;;;;;16.20;4.63;;;11.10;99.90;;;;;;5026488;28;20045;-73
2023/03/25 11:11:40;;;;;;;13.80;3.60;;;11.20;99.90;;;;;;5052084;28;20378;-73
2023/03/25 11:14:06;;;;;;;14.23;4.25;;;11.20;99.90;;;;;;5021994;28;20078;-71
2023/03/25 11:16:34;;;;;;;13.90;3.67;;;11.10;99.90;;;;;;5052180;28;20040;-74
2023/03/25 11:19:02;;;;;;;15.30;3.85;;;11.10;99.90;;;;;;5027452;28;20069;-72
2023/03/25 11:21:32;;;;;;;17.75;4.10;;;11.10;99.90;;;;;;5045607;28;20389;-74
2023/03/25 11:23:59;;;;;;;15.30;3.40;;;11.10;99.90;;;;;;5038674;28;20048;-75
2023/03/25 11:26:40;;;;;;;12.48;3.80;;;11.10;99.90;;;;;;5033947;28;20466;-68
2023/03/25 11:29:15;;;;;;;17.25;4.03;;;11.20;99.90;;;;;;5026398;28;20044;-73
2023/03/25 11:31:42;;;;;;;13.07;4.25;;;11.20;99.90;;;;;;5035036;28;20048;-73
2023/03/25 11:34:21;;;;;;;16.05;4.40;;;11.30;99.90;;;;;;5049770;28;20037;-73
2023/03/25 11:37:00;;;;;;;21.15;4.13;;;11.30;99.90;;;;;;5019981;28;20046;-73
2023/03/25 11:39:32;;;;;;;14.85;4.68;;;11.30;99.90;;;;;;5032875;28;20092;-72
2023/03/25 11:41:59;;;;;;;14.93;3.58;;;11.20;99.90;;;;;;5033307;28;20045;-72
2023/03/25 11:44:32;;;;;;;13.07;4.00;;;11.30;99.90;;;;;;5053973;28;20548;-73
2023/03/25 11:47:02;;;;;;;13.25;4.75;;;11.30;99.90;;;;;;5019266;28;20088;-73
2023/03/25 11:49:30;;;;;;;12.60;3.63;;;11.30;99.90;;;;;;5005891;28;20117;-74
2023/03/25 11:52:03;;;;;;;20.45;4.95;;;11.30;99.90;;;;;;5013292;28;20045;-71
2023/03/25 11:54:31;;;;;;;15.45;4.10;;;11.20;99.90;;;;;;5033225;28;20090;-71
2023/03/25 11:56:57;;;;;;;14.23;3.30;;;11.30;99.90;;;;;;5034032;28;20049;-72
2023/03/25 11:59:44;;;;;;;12.50;3.58;;;11.20;99.90;;;;;;5032719;28;20072;-71
2023/03/25 12:02:24;;;;;;;12.57;3.50;;;11.20;99.90;;;;;;5030718;28;20521;-71
2023/03/25 12:05:02;;;;;;;16.45;3.42;;;11.10;99.90;;;;;;5030019;28;20036;-73
2023/03/25 12:07:29;;;;;;;13.05;3.90;;;11.10;99.90;;;;;;5034204;28;20029;-72
2023/03/25 12:09:57;;;;;;;14.73;4.25;;;11.10;99.90;;;;;;5045113;28;20029;-73
2023/03/25 12:12:50;;;;;;;7.57;2.70;;;11.20;99.90;;;;;;5041842;28;20044;-73
2023/03/25 12:15:26;;;;;;;10.82;3.78;;;11.30;99.90;;;;;;5031039;28;20045;-72
2023/03/25 12:18:01;;;;;;;16.83;3.30;;;11.30;99.90;;;;;;5026686;28;20037;-72
2023/03/25 12:20:52;;;;;;;16.23;3.33;;;11.30;99.90;;;;;;5023588;28;20056;-70
2023/03/25 12:23:43;;;;;;;13.63;3.17;;;11.20;99.90;;;;;;5013668;28;20040;-71
2023/03/25 12:26:20;;;;;;;10.60;3.55;;;11.10;99.90;;;;;;5027336;28;20528;-71
2023/03/25 12:29:03;;;;;;;14.70;4.50;;;11.00;99.90;;;;;;5045280;28;20049;-74
2023/03/25 12:31:50;;;;;;;12.85;3.08;;;11.00;99.90;;;;;;5039772;28;20048;-73
2023/03/25 12:34:38;;;;;;;15.70;3.97;;;11.00;99.90;;;;;;5020764;28;20052;-70
2023/03/25 12:37:30;;;;;;;12.85;3.63;;;11.00;99.90;;;;;;5006112;28;20049;-74
2023/03/25 12:39:59;;;;;;;20.55;3.80;;;11.00;99.90;;;;;;5049545;28;20057;-71
2023/03/25 12:42:33;;;;;;;11.32;3.58;;;10.90;99.90;;;;;;5029184;28;20128;-76
2023/03/25 12:45:03;;;;;;;12.85;3.58;;;10.80;99.90;;;;;;5052485;28;20047;-76
2023/03/25 12:47:41;;;;;;;14.27;3.83;;;10.60;99.90;;;;;;5051898;28;20080;-72
2023/03/25 12:50:22;;;;;;;14.93;3.65;;;10.40;99.90;;;;;;5049742;28;20082;-73
2023/03/25 12:53:39;;;;;;;26.08;4.63;;;10.20;99.90;;;;;;5032134;28;20486;-72
2023/03/25 12:56:29;;;;;;;11.93;3.60;;;10.10;99.90;;;;;;4991818;28;20495;-73
2023/03/25 12:59:22;;;;;;;13.15;3.70;;;9.80;99.90;;;;;;4999431;28;20129;-75
2023/03/25 13:02:08;;;;;;;12.52;3.85;;;9.50;99.90;;;;;;5029082;28;20421;-74
2023/03/25 13:04:37;;;;;;;11.10;3.13;;;9.40;99.90;;;;;;5001863;28;20069;-74
2023/03/25 13:07:17;;;;;;;14.60;3.47;;;9.30;99.90;;;;;;5009674;28;20052;-73
2023/03/25 13:09:52;;;;;;;16.65;4.55;;;9.30;99.90;;;;;;5017484;28;20485;-73